< < Back
Terminal Aerodrome Forecast


Current Version              Previous Versions:   1  2  3  4  5  6  7  8  9  

Terminal Aerodrome Forecast

744
FTUS42 KGSP 201702 AAC
TAFAND
TAF AMD
KAND 201702Z 2017/2112 05006KT 5SM BR OVC006
     FM202000 04004KT P6SM OVC015
     FM210300 04003KT 5SM BR BKN010
     FM210900 05003KT 1/2SM FG BKN015=

Latest METAR

485
SAUS70 KWBC 210100
MTRAND
METAR KAND 210056Z AUTO 06005KT 10SM OVC014 07/04 A3022 RMK AO2 SLP236
T00720044


USA.gov is the U.S. government's official web portal to all federal, state and local government web resources and services.